Time;durP1;ratioP1;P1;durP2;ratioP2;P2;SDS_P1;SDS_P2;PMS_P1;PMS_P2;Temp;Humidity;BMP_temperature;BMP_pressure;BME280_temperature;BME280_humidity;BME280_pressure;Samples;Min_cycle;Max_cycle;Signal;HPM_P1;HPM_P2
2023/04/12 00:00:32;;;;;;;6.50;2.75;;;10.10;99.90;;;;;;4969616;28;20232;-42
2023/04/12 00:03:01;;;;;;;11.38;2.50;;;;;;;;;;4972730;28;20181;-43
2023/04/12 00:05:30;;;;;;;8.15;2.05;;;10.20;99.90;;;;;;4973423;28;20181;-43
2023/04/12 00:07:59;;;;;;;5.90;2.20;;;10.10;99.90;;;;;;4973064;28;20218;-42
2023/04/12 00:10:25;;;;;;;8.10;1.90;;;10.10;99.90;;;;;;4972863;28;20174;-42
2023/04/12 00:12:50;;;;;;;6.82;2.50;;;10.00;99.90;;;;;;4972986;28;20181;-43
2023/04/12 00:15:16;;;;;;;3.95;1.92;;;10.00;99.90;;;;;;4972945;28;20169;-44
2023/04/12 00:17:43;;;;;;;5.45;1.77;;;10.00;99.90;;;;;;4973063;28;20183;-42
2023/04/12 00:20:12;;;;;;;4.18;2.08;;;10.00;99.90;;;;;;4972909;28;20177;-44
2023/04/12 00:22:41;;;;;;;4.60;1.60;;;9.90;99.90;;;;;;4972969;28;20552;-44
2023/04/12 00:25:07;;;;;;;6.20;2.13;;;9.90;99.90;;;;;;4972821;28;20166;-43
2023/04/12 00:27:32;;;;;;;4.85;1.40;;;9.80;99.90;;;;;;4972708;28;20633;-43
2023/04/12 00:29:58;;;;;;;10.02;1.80;;;9.90;99.90;;;;;;4991176;28;20191;-43
2023/04/12 00:32:23;;;;;;;5.88;1.40;;;9.90;99.90;;;;;;4992132;28;20596;-43
2023/04/12 00:34:49;;;;;;;5.65;1.77;;;9.80;99.90;;;;;;4992198;28;20184;-42
2023/04/12 00:37:14;;;;;;;7.18;1.70;;;9.80;99.90;;;;;;4992064;28;20238;-42
2023/04/12 00:39:40;;;;;;;11.73;1.83;;;9.80;99.90;;;;;;4992006;28;20211;-42
2023/04/12 00:42:05;;;;;;;3.40;1.70;;;9.80;99.90;;;;;;4991985;28;20203;-43
2023/04/12 00:44:32;;;;;;;3.97;1.63;;;9.80;99.90;;;;;;4992066;28;20211;-43
2023/04/12 00:46:58;;;;;;;5.50;1.50;;;9.80;99.90;;;;;;4992303;28;20227;-42
2023/04/12 00:49:29;;;;;;;5.43;1.95;;;9.80;99.90;;;;;;4991887;28;20232;-43
2023/04/12 00:52:13;;;;;;;9.07;2.20;;;9.80;99.90;;;;;;4992367;28;20192;-43
2023/04/12 00:54:40;;;;;;;5.15;1.63;;;9.70;99.90;;;;;;4992048;28;20169;-45
2023/04/12 00:57:05;;;;;;;5.75;2.13;;;9.70;99.90;;;;;;4992051;28;20249;-43
2023/04/12 00:59:31;;;;;;;6.78;1.88;;;9.80;99.90;;;;;;4975627;28;20649;-43
2023/04/12 01:01:58;;;;;;;4.60;1.63;;;9.70;99.90;;;;;;4972803;28;20220;-43
2023/04/12 01:04:25;;;;;;;3.03;1.52;;;9.60;99.90;;;;;;4971160;28;20219;-43
2023/04/12 01:07:02;;;;;;;4.30;1.67;;;9.70;99.90;;;;;;4972451;28;20259;-46
2023/04/12 01:09:44;;;;;;;5.85;1.70;;;9.70;99.90;;;;;;4972467;28;20300;-43
2023/04/12 01:12:32;;;;;;;4.43;1.70;;;9.70;99.90;;;;;;4972436;28;20173;-46
2023/04/12 01:15:02;;;;;;;4.80;1.63;;;9.70;99.90;;;;;;4970996;28;20728;-46
2023/04/12 01:17:36;;;;;;;7.00;1.80;;;9.60;99.90;;;;;;4972742;28;20203;-45
2023/04/12 01:20:15;;;;;;;5.45;1.77;;;9.50;99.90;;;;;;4971972;28;20165;-45
2023/04/12 01:23:14;;;;;;;4.10;1.80;;;9.50;99.90;;;;;;4972240;28;20310;-46
2023/04/12 01:25:47;;;;;;;5.72;1.60;;;9.50;99.90;;;;;;4970901;28;20637;-45
2023/04/12 01:28:22;;;;;;;8.00;2.40;;;9.40;99.90;;;;;;4976015;28;20259;-43
2023/04/12 01:30:50;;;;;;;6.38;1.90;;;9.50;99.90;;;;;;4990943;28;20560;-46
2023/04/12 01:33:17;;;;;;;5.68;1.67;;;9.40;99.90;;;;;;4991531;28;20639;-45
2023/04/12 01:35:44;;;;;;;4.15;1.73;;;9.40;99.90;;;;;;4991457;28;20173;-45
2023/04/12 01:38:10;;;;;;;10.63;2.17;;;9.40;99.90;;;;;;4991202;28;20193;-44
2023/04/12 01:40:39;;;;;;;5.97;1.88;;;9.40;99.90;;;;;;4991080;28;20661;-45
2023/04/12 01:43:06;;;;;;;2.97;1.90;;;9.40;99.90;;;;;;4991112;28;20633;-45
2023/04/12 01:45:32;;;;;;;5.75;1.40;;;9.30;99.90;;;;;;4989455;28;20200;-43
2023/04/12 01:47:58;;;;;;;3.08;1.13;;;9.30;99.90;;;;;;4991354;28;20249;-43
2023/04/12 01:50:38;;;;;;;4.22;1.90;;;9.30;99.90;;;;;;4991195;28;20176;-46
2023/04/12 01:53:22;;;;;;;7.68;1.63;;;9.30;99.90;;;;;;4990979;28;20225;-46
2023/04/12 01:55:49;;;;;;;6.47;2.00;;;9.30;99.90;;;;;;4990832;28;20165;-44
2023/04/12 01:58:20;;;;;;;2.17;1.30;;;9.30;99.90;;;;;;4986081;28;20693;-45
2023/04/12 02:00:47;;;;;;;5.63;1.30;;;9.20;99.90;;;;;;4971676;28;20648;-45
2023/04/12 02:03:13;;;;;;;6.00;1.63;;;9.20;99.90;;;;;;4971398;28;20176;-46
2023/04/12 02:05:39;;;;;;;2.90;1.27;;;9.20;99.90;;;;;;4971353;28;20253;-43
2023/04/12 02:08:05;;;;;;;2.95;1.70;;;9.20;99.90;;;;;;4970224;28;20694;-43
2023/04/12 02:10:31;;;;;;;4.60;1.33;;;9.10;99.90;;;;;;4971375;28;20174;-44
2023/04/12 02:13:01;;;;;;;2.28;1.38;;;9.10;99.90;;;;;;4971635;28;20193;-45
2023/04/12 02:15:27;;;;;;;5.40;1.58;;;9.10;99.90;;;;;;4971715;28;20251;-45
2023/04/12 02:17:53;;;;;;;6.47;1.63;;;9.10;99.90;;;;;;4971203;28;20169;-44
2023/04/12 02:20:20;;;;;;;2.67;1.33;;;9.00;99.90;;;;;;4971261;28;20178;-44
2023/04/12 02:22:46;;;;;;;3.47;1.08;;;9.00;99.90;;;;;;4971112;28;20688;-43
2023/04/12 02:25:12;;;;;;;2.33;1.30;;;8.90;99.90;;;;;;4970817;28;20169;-43
2023/04/12 02:27:38;;;;;;;2.83;1.50;;;9.00;99.90;;;;;;4972582;28;20252;-45
2023/04/12 02:30:04;;;;;;;6.38;1.60;;;8.90;99.90;;;;;;4989953;28;20533;-44
2023/04/12 02:32:30;;;;;;;3.95;1.25;;;;;;;;;;4990553;28;20214;-43
2023/04/12 02:34:57;;;;;;;3.10;1.40;;;8.90;99.90;;;;;;4990985;28;20192;-44
2023/04/12 02:37:26;;;;;;;2.97;1.10;;;8.90;99.90;;;;;;4990562;28;20183;-43
2023/04/12 02:39:55;;;;;;;1.75;1.35;;;8.90;99.90;;;;;;4990470;28;20184;-43
2023/04/12 02:42:21;;;;;;;1.77;1.33;;;8.90;99.90;;;;;;4990013;28;20254;-43
2023/04/12 02:44:47;;;;;;;5.13;1.65;;;8.90;99.90;;;;;;4990189;28;20177;-43
2023/04/12 02:47:13;;;;;;;3.75;1.50;;;8.90;99.90;;;;;;4990092;28;20177;-44
2023/04/12 02:49:39;;;;;;;4.78;1.52;;;8.90;99.90;;;;;;4990082;28;20672;-43
2023/04/12 02:52:04;;;;;;;3.10;1.30;;;8.90;99.90;;;;;;4990163;28;20193;-45
2023/04/12 02:54:30;;;;;;;2.08;1.40;;;8.80;99.90;;;;;;4990007;28;20226;-44
2023/04/12 02:56:56;;;;;;;2.38;1.30;;;8.90;99.90;;;;;;4990419;28;20244;-44
2023/04/12 02:59:21;;;;;;;3.53;1.20;;;8.80;99.90;;;;;;4974409;28;20199;-44
2023/04/12 03:01:49;;;;;;;3.33;1.33;;;8.90;99.90;;;;;;4970107;28;20249;-45
2023/04/12 03:04:15;;;;;;;3.05;1.63;;;8.90;99.90;;;;;;4970250;28;20184;-45
2023/04/12 03:06:51;;;;;;;6.90;2.10;;;8.80;99.90;;;;;;4968733;28;20262;-45
2023/04/12 03:09:17;;;;;;;8.70;2.00;;;9.00;99.90;;;;;;4969767;28;20271;-44
2023/04/12 03:11:42;;;;;;;5.57;2.38;;;8.90;99.90;;;;;;4969847;28;20170;-44
2023/04/12 03:14:08;;;;;;;3.47;2.17;;;8.90;99.90;;;;;;4969850;28;20593;-44
2023/04/12 03:16:34;;;;;;;4.22;1.88;;;8.80;99.90;;;;;;4969859;28;20188;-44
2023/04/12 03:19:00;;;;;;;4.32;1.90;;;;;;;;;;4970035;28;20252;-43
2023/04/12 03:21:27;;;;;;;3.88;1.42;;;8.80;99.90;;;;;;4969938;28;20213;-44
2023/04/12 03:23:52;;;;;;;4.65;1.50;;;8.80;99.90;;;;;;4969785;28;20562;-44
2023/04/12 03:26:19;;;;;;;8.02;3.30;;;;;;;;;;4969568;28;20251;-44
2023/04/12 03:28:45;;;;;;;2.47;1.73;;;8.80;99.90;;;;;;4978314;28;20176;-45
2023/04/12 03:31:11;;;;;;;5.28;2.88;;;8.90;99.90;;;;;;4988873;28;20160;-45
2023/04/12 03:33:37;;;;;;;16.95;7.30;;;8.80;99.90;;;;;;4988860;28;20183;-44
2023/04/12 03:36:04;;;;;;;6.93;3.70;;;8.80;99.90;;;;;;4988300;28;20252;-43
2023/04/12 03:38:30;;;;;;;11.77;4.55;;;;;;;;;;4988920;28;20262;-43
2023/04/12 03:40:56;;;;;;;11.77;4.38;;;;;;;;;;4989291;28;20216;-42
2023/04/12 03:43:21;;;;;;;5.15;3.20;;;8.70;99.90;;;;;;4988887;28;20168;-43
2023/04/12 03:45:47;;;;;;;4.03;2.20;;;8.80;99.90;;;;;;4988895;28;20195;-44
2023/04/12 03:48:12;;;;;;;3.78;2.70;;;8.80;99.90;;;;;;4988806;28;20533;-44
2023/04/12 03:50:43;;;;;;;16.88;6.63;;;8.80;99.90;;;;;;4988873;28;20176;-43
2023/04/12 03:53:09;;;;;;;12.77;4.95;;;8.80;99.90;;;;;;4988891;28;20165;-43
2023/04/12 03:55:36;;;;;;;5.15;2.65;;;8.70;99.90;;;;;;5000295;28;20189;-44
2023/04/12 03:58:02;;;;;;;4.90;2.60;;;8.80;99.90;;;;;;4993131;28;20188;-44
2023/04/12 04:00:28;;;;;;;3.10;2.03;;;8.80;99.90;;;;;;4988934;28;20694;-43
2023/04/12 04:02:57;;;;;;;7.28;3.85;;;8.80;99.90;;;;;;4988916;28;20184;-44
2023/04/12 04:05:23;;;;;;;3.30;2.25;;;8.90;99.90;;;;;;4988637;28;20628;-44
2023/04/12 04:07:50;;;;;;;4.25;2.50;;;8.90;99.90;;;;;;4988680;28;20187;-43
2023/04/12 04:10:16;;;;;;;15.45;9.48;;;;;;;;;;4988805;28;20192;-43
2023/04/12 04:12:42;;;;;;;4.80;3.25;;;;;;;;;;4988564;28;20256;-43
2023/04/12 04:15:08;;;;;;;6.85;3.72;;;8.80;99.90;;;;;;4988569;28;20316;-44
2023/04/12 04:17:33;;;;;;;4.18;2.05;;;8.80;99.90;;;;;;4971370;28;20214;-44
2023/04/12 04:19:59;;;;;;;4.72;2.25;;;;;;;;;;4967831;28;20787;-43
2023/04/12 04:22:25;;;;;;;3.20;2.10;;;8.80;99.90;;;;;;4969412;28;20259;-43
2023/04/12 04:24:50;;;;;;;6.50;3.00;;;8.80;99.90;;;;;;4975742;28;20173;-43
2023/04/12 04:27:16;;;;;;;5.78;1.77;;;;;;;;;;4977974;28;20629;-43
2023/04/12 04:29:45;;;;;;;3.10;2.45;;;;;;;;;;4968882;28;20174;-44
2023/04/12 04:32:11;;;;;;;4.82;2.92;;;8.80;99.90;;;;;;4968982;28;20657;-43
2023/04/12 04:34:37;;;;;;;5.30;2.83;;;;;;;;;;4968795;28;20629;-43
2023/04/12 04:37:03;;;;;;;6.28;3.03;;;;;;;;;;4982636;28;20256;-44
2023/04/12 04:39:29;;;;;;;3.30;2.25;;;;;;;;;;4988176;28;20259;-43
2023/04/12 04:41:56;;;;;;;4.63;2.10;;;8.80;99.90;;;;;;4988409;28;20208;-44
2023/04/12 04:44:21;;;;;;;6.43;2.53;;;8.70;99.90;;;;;;4987938;28;20507;-44
2023/04/12 04:46:47;;;;;;;4.40;2.22;;;8.80;99.90;;;;;;4987874;28;20184;-44
2023/04/12 04:49:13;;;;;;;7.90;2.90;;;8.80;99.90;;;;;;4990078;28;20184;-43
2023/04/12 04:51:38;;;;;;;5.07;2.40;;;8.80;99.90;;;;;;4991512;28;20173;-43
2023/04/12 04:54:04;;;;;;;6.60;3.13;;;8.80;99.90;;;;;;4991550;28;20672;-43
2023/04/12 04:56:31;;;;;;;8.10;3.55;;;;;;;;;;4979495;28;20671;-43
2023/04/12 04:58:57;;;;;;;6.93;4.53;;;8.70;99.90;;;;;;4972245;28;20174;-44
2023/04/12 05:01:26;;;;;;;9.07;5.47;;;;;;;;;;4971982;28;20209;-43
2023/04/12 05:03:54;;;;;;;4.15;2.47;;;8.70;99.90;;;;;;4971924;28;20170;-43
2023/04/12 05:06:20;;;;;;;7.05;4.03;;;8.70;99.90;;;;;;4971996;28;20182;-43
2023/04/12 05:08:45;;;;;;;2.83;2.03;;;8.70;99.90;;;;;;4971645;28;20719;-43
2023/04/12 05:11:11;;;;;;;6.28;2.17;;;8.70;99.90;;;;;;4971865;28;20165;-43
2023/04/12 05:13:36;;;;;;;4.97;2.53;;;8.70;99.90;;;;;;4971623;28;20169;-43
2023/04/12 05:16:08;;;;;;;7.30;2.70;;;8.70;99.90;;;;;;4981268;28;20254;-43
2023/04/12 05:18:34;;;;;;;5.72;2.40;;;8.60;99.90;;;;;;4990978;28;20197;-43
2023/04/12 05:21:04;;;;;;;4.75;2.72;;;8.60;99.90;;;;;;4991263;28;20219;-43
2023/04/12 05:23:34;;;;;;;5.40;2.47;;;8.70;99.90;;;;;;4991051;28;20180;-43
2023/04/12 05:25:59;;;;;;;7.55;2.30;;;8.60;99.90;;;;;;4991247;28;20264;-44
2023/04/12 05:28:25;;;;;;;5.18;2.30;;;8.70;99.90;;;;;;4991515;28;20260;-44
2023/04/12 05:30:51;;;;;;;4.00;2.45;;;;;;;;;;4991183;28;20528;-44
2023/04/12 05:33:16;;;;;;;5.00;2.83;;;8.60;99.90;;;;;;4990872;28;20251;-44
2023/04/12 05:35:42;;;;;;;2.65;2.22;;;8.70;99.90;;;;;;4980976;28;20235;-43
2023/04/12 05:38:07;;;;;;;6.72;3.13;;;8.70;99.90;;;;;;4971540;28;20227;-43
2023/04/12 05:40:35;;;;;;;8.30;2.72;;;8.60;99.90;;;;;;4982338;28;20169;-43
2023/04/12 05:43:01;;;;;;;4.80;2.60;;;;;;;;;;4990701;28;20212;-43
2023/04/12 05:45:27;;;;;;;5.50;2.58;;;;;;;;;;4991172;28;20169;-45
2023/04/12 05:47:54;;;;;;;3.13;2.83;;;8.50;99.90;;;;;;4990560;28;20628;-43
2023/04/12 05:50:20;;;;;;;4.68;2.90;;;8.60;99.90;;;;;;4985699;28;20219;-43
2023/04/12 05:52:49;;;;;;;4.88;2.80;;;;;;;;;;4971009;28;20177;-43
2023/04/12 05:55:17;;;;;;;4.60;2.58;;;8.70;99.90;;;;;;4971063;28;20196;-43
2023/04/12 05:57:44;;;;;;;7.32;2.78;;;8.60;99.90;;;;;;4982496;28;20632;-43
2023/04/12 06:00:15;;;;;;;4.13;2.90;;;8.60;99.90;;;;;;4990188;28;20173;-43
2023/04/12 06:02:45;;;;;;;4.95;2.88;;;8.70;99.90;;;;;;4988791;28;20216;-44
2023/04/12 06:05:11;;;;;;;5.25;2.90;;;8.60;99.90;;;;;;4981826;28;20777;-46
2023/04/12 06:07:38;;;;;;;5.30;3.40;;;8.60;99.90;;;;;;4970926;28;20223;-45
2023/04/12 06:10:05;;;;;;;6.28;3.33;;;8.60;99.90;;;;;;4970605;28;20217;-45
2023/04/12 06:12:31;;;;;;;4.45;3.10;;;8.60;99.90;;;;;;4970995;28;20173;-44
2023/04/12 06:14:57;;;;;;;5.05;2.80;;;;;;;;;;4972791;28;20176;-45
2023/04/12 06:17:23;;;;;;;5.32;3.40;;;8.70;99.90;;;;;;4990182;28;20172;-44
2023/04/12 06:19:48;;;;;;;6.38;3.38;;;8.70;99.90;;;;;;4990261;28;20172;-44
2023/04/12 06:22:14;;;;;;;8.95;3.60;;;8.70;99.90;;;;;;4990081;28;20664;-44
2023/04/12 06:24:40;;;;;;;5.25;3.45;;;8.70;99.90;;;;;;4977502;28;20181;-43
2023/04/12 06:27:06;;;;;;;7.00;3.20;;;;;;;;;;4982562;28;20200;-44
2023/04/12 06:29:31;;;;;;;6.82;3.83;;;8.70;99.90;;;;;;4970513;28;20169;-44
2023/04/12 06:31:57;;;;;;;7.45;3.47;;;8.80;99.90;;;;;;4971151;28;20178;-43
2023/04/12 06:34:23;;;;;;;9.77;3.65;;;8.80;99.90;;;;;;4984963;28;20226;-44
2023/04/12 06:36:48;;;;;;;6.93;3.35;;;8.80;99.90;;;;;;4989871;28;20242;-45
2023/04/12 06:39:15;;;;;;;5.65;3.05;;;8.80;99.90;;;;;;4989861;28;20191;-45
2023/04/12 06:41:42;;;;;;;6.13;4.00;;;8.90;99.90;;;;;;4984142;28;20209;-45
2023/04/12 06:44:08;;;;;;;6.45;3.70;;;8.90;99.90;;;;;;4970049;28;20174;-45
2023/04/12 06:46:34;;;;;;;5.97;3.55;;;;;;;;;;4970285;28;20567;-45
2023/04/12 06:49:00;;;;;;;9.60;4.07;;;9.00;99.90;;;;;;4970106;28;20300;-45
2023/04/12 06:51:27;;;;;;;5.10;3.60;;;9.00;99.90;;;;;;4971435;28;20536;-45
2023/04/12 06:53:53;;;;;;;3.90;3.15;;;9.00;99.90;;;;;;4951190;28;20257;-46
2023/04/12 06:56:18;;;;;;;6.68;3.35;;;9.00;99.90;;;;;;4950837;28;20645;-43
2023/04/12 06:58:44;;;;;;;6.07;3.45;;;9.00;99.90;;;;;;4950751;28;20170;-43
2023/04/12 07:01:11;;;;;;;4.53;3.90;;;9.10;99.90;;;;;;4951029;28;20202;-43
2023/04/12 07:03:37;;;;;;;3.90;3.42;;;;;;;;;;4951044;28;20228;-43
2023/04/12 07:06:04;;;;;;;5.95;3.70;;;;;;;;;;4957575;28;20169;-43
2023/04/12 07:08:36;;;;;;;4.20;3.17;;;9.20;99.90;;;;;;4989021;28;20212;-43
2023/04/12 07:11:03;;;;;;;6.50;3.45;;;9.30;99.90;;;;;;4988403;28;20256;-43
2023/04/12 07:13:30;;;;;;;3.92;3.53;;;9.20;99.90;;;;;;4987927;28;20176;-43
2023/04/12 07:15:56;;;;;;;4.75;3.33;;;9.20;99.90;;;;;;4989694;28;20176;-43
2023/04/12 07:18:22;;;;;;;5.25;3.78;;;;;;;;;;4989517;28;20184;-43
2023/04/12 07:20:49;;;;;;;4.60;3.08;;;9.20;99.90;;;;;;4977163;28;20205;-43
2023/04/12 07:23:15;;;;;;;4.70;3.33;;;9.30;99.90;;;;;;4968240;28;20174;-43
2023/04/12 07:25:41;;;;;;;6.90;3.30;;;9.40;99.90;;;;;;4969985;28;20718;-42
2023/04/12 07:28:06;;;;;;;8.00;4.18;;;9.50;99.90;;;;;;4969554;28;20189;-43
2023/04/12 07:30:32;;;;;;;5.75;2.97;;;9.50;99.90;;;;;;4969635;28;20166;-43
2023/04/12 07:32:59;;;;;;;4.18;3.08;;;9.60;99.90;;;;;;4969952;28;20173;-45
2023/04/12 07:35:25;;;;;;;3.22;2.70;;;9.60;99.90;;;;;;4969895;28;20162;-45
2023/04/12 07:37:52;;;;;;;4.22;3.08;;;9.60;99.90;;;;;;4969586;28;20802;-43
2023/04/12 07:40:18;;;;;;;4.78;3.17;;;;;;;;;;4968125;28;20207;-44
2023/04/12 07:42:44;;;;;;;3.30;3.00;;;;;;;;;;4968126;28;20308;-44
2023/04/12 07:45:10;;;;;;;4.80;3.47;;;;;;;;;;4969681;28;20172;-45
2023/04/12 07:47:35;;;;;;;4.45;3.40;;;9.60;99.90;;;;;;4969501;28;20653;-44
2023/04/12 07:50:02;;;;;;;5.72;4.28;;;9.70;99.90;;;;;;4976052;28;20289;-44
2023/04/12 07:52:29;;;;;;;8.85;4.57;;;;;;;;;;4988923;28;20204;-43
2023/04/12 07:54:54;;;;;;;4.30;3.22;;;9.70;99.90;;;;;;4989193;28;20172;-44
2023/04/12 07:57:20;;;;;;;4.80;3.38;;;9.80;99.90;;;;;;4988705;28;20195;-44
2023/04/12 07:59:46;;;;;;;3.78;3.40;;;9.80;99.90;;;;;;4988357;28;20252;-45
2023/04/12 08:02:11;;;;;;;6.57;3.80;;;9.80;99.90;;;;;;4988706;28;20208;-46
2023/04/12 08:04:37;;;;;;;4.85;3.53;;;9.90;99.90;;;;;;4988795;28;20499;-45
2023/04/12 08:07:03;;;;;;;4.20;3.70;;;;;;;;;;4988501;28;20169;-44
2023/04/12 08:09:29;;;;;;;8.35;4.32;;;;;;;;;;4988529;28;20216;-45
2023/04/12 08:11:55;;;;;;;5.93;4.05;;;10.10;99.90;;;;;;4989205;28;20176;-44
2023/04/12 08:14:21;;;;;;;5.95;3.65;;;10.30;99.90;;;;;;4988593;28;20161;-43
2023/04/12 08:16:47;;;;;;;5.10;3.38;;;10.40;99.90;;;;;;4988647;28;20180;-45
2023/04/12 08:19:12;;;;;;;5.45;3.05;;;10.30;99.90;;;;;;4987909;28;20165;-44
2023/04/12 08:21:38;;;;;;;4.35;3.22;;;10.30;99.90;;;;;;4970136;28;20219;-45
2023/04/12 08:24:04;;;;;;;6.60;3.40;;;10.50;99.90;;;;;;4971895;28;20673;-44
2023/04/12 08:26:30;;;;;;;5.80;3.15;;;;;;;;;;4972606;28;20178;-43
2023/04/12 08:28:57;;;;;;;4.72;2.90;;;10.80;99.90;;;;;;4972945;28;20178;-45
2023/04/12 08:31:23;;;;;;;5.80;2.72;;;10.70;99.90;;;;;;4972141;28;20637;-45
2023/04/12 08:33:48;;;;;;;4.22;2.45;;;10.70;99.90;;;;;;4972356;28;20252;-42
2023/04/12 08:36:14;;;;;;;3.45;2.80;;;10.80;99.90;;;;;;4972512;28;20617;-43
2023/04/12 08:38:40;;;;;;;2.60;2.38;;;;;;;;;;4972434;28;20219;-43
2023/04/12 08:41:06;;;;;;;2.30;2.05;;;10.60;99.90;;;;;;4972193;28;20201;-43
2023/04/12 08:43:33;;;;;;;2.88;1.90;;;10.70;99.90;;;;;;4972320;28;20181;-43
2023/04/12 08:46:00;;;;;;;2.22;1.75;;;10.80;99.90;;;;;;4972370;28;20184;-43
2023/04/12 08:48:27;;;;;;;3.92;2.22;;;10.80;99.90;;;;;;4972423;28;20197;-43
2023/04/12 08:50:55;;;;;;;3.35;2.33;;;10.80;99.90;;;;;;4985161;28;20184;-42
2023/04/12 08:53:21;;;;;;;1.80;1.55;;;10.90;99.90;;;;;;4991212;28;20169;-44
2023/04/12 08:55:46;;;;;;;2.47;1.33;;;11.00;99.90;;;;;;4991317;28;20260;-43
2023/04/12 08:58:15;;;;;;;1.40;1.30;;;10.90;99.90;;;;;;4990106;28;20172;-43
2023/04/12 09:00:41;;;;;;;1.67;1.20;;;11.00;99.90;;;;;;4991221;28;20570;-43
2023/04/12 09:03:09;;;;;;;1.50;1.40;;;11.00;99.90;;;;;;4991143;28;20188;-41
2023/04/12 09:05:35;;;;;;;1.58;1.27;;;;;;;;;;4991187;28;20540;-42
2023/04/12 09:08:01;;;;;;;1.20;1.08;;;11.30;99.90;;;;;;4990919;28;20177;-41
2023/04/12 09:10:32;;;;;;;1.70;1.30;;;11.40;99.90;;;;;;4991582;28;20175;-43
2023/04/12 09:12:59;;;;;;;1.23;1.15;;;11.50;99.90;;;;;;4991303;28;20230;-42
2023/04/12 09:15:25;;;;;;;1.80;1.50;;;11.50;99.90;;;;;;4991457;28;20175;-44
2023/04/12 09:18:03;;;;;;;1.20;1.13;;;11.50;99.90;;;;;;4991178;28;20264;-42
2023/04/12 09:20:29;;;;;;;1.92;1.42;;;;;;;;;;4978616;28;20260;-44
2023/04/12 09:22:55;;;;;;;2.28;1.30;;;11.70;99.90;;;;;;4971919;28;20288;-45
2023/04/12 09:25:38;;;;;;;4.20;1.60;;;11.50;99.90;;;;;;4971959;28;20260;-44
2023/04/12 09:28:17;;;;;;;2.85;2.40;;;11.60;99.90;;;;;;4971798;28;20531;-45
2023/04/12 09:30:43;;;;;;;3.10;2.25;;;;;;;;;;4971793;28;20184;-44
2023/04/12 09:33:12;;;;;;;2.25;1.30;;;11.70;99.90;;;;;;4970420;28;20169;-45
2023/04/12 09:35:37;;;;;;;2.10;1.63;;;11.80;99.90;;;;;;4970745;28;20252;-43
2023/04/12 09:38:10;;;;;;;1.67;1.40;;;12.00;99.90;;;;;;4971514;28;20245;-44
2023/04/12 09:40:36;;;;;;;1.60;1.50;;;12.00;99.90;;;;;;4986282;28;20246;-42
2023/04/12 09:43:03;;;;;;;1.42;1.33;;;;;;;;;;4990715;28;20172;-44
2023/04/12 09:45:32;;;;;;;2.50;1.50;;;11.80;99.90;;;;;;4990701;28;20168;-44
2023/04/12 09:47:58;;;;;;;2.58;1.73;;;11.80;99.90;;;;;;4990352;28;20252;-44
2023/04/12 09:50:27;;;;;;;4.22;2.20;;;11.70;99.90;;;;;;4991129;28;20161;-43
2023/04/12 09:52:56;;;;;;;3.13;1.60;;;11.70;99.90;;;;;;4991272;28;20201;-43
2023/04/12 09:55:26;;;;;;;4.07;2.33;;;11.80;99.90;;;;;;4990534;28;20576;-46
2023/04/12 09:57:53;;;;;;;3.22;2.45;;;12.00;99.90;;;;;;4990335;28;20165;-44
2023/04/12 10:00:22;;;;;;;1.15;1.02;;;11.80;99.90;;;;;;4974821;28;20209;-44
2023/04/12 10:02:50;;;;;;;2.95;1.50;;;11.90;99.90;;;;;;4969575;28;20693;-44
2023/04/12 10:05:18;;;;;;;1.73;1.60;;;12.00;99.90;;;;;;4970938;28;20201;-46
2023/04/12 10:07:44;;;;;;;1.98;1.60;;;11.90;99.90;;;;;;4970409;28;20690;-44
2023/04/12 10:10:13;;;;;;;5.43;1.73;;;11.80;99.90;;;;;;4970949;28;20182;-44
2023/04/12 10:12:40;;;;;;;1.77;1.60;;;11.70;99.90;;;;;;4970787;28;20170;-45
2023/04/12 10:15:17;;;;;;;2.05;1.05;;;11.60;99.90;;;;;;4970894;28;20208;-44
2023/04/12 10:17:48;;;;;;;1.45;1.10;;;11.60;99.90;;;;;;4971022;28;20270;-43
2023/04/12 10:20:15;;;;;;;1.83;0.77;;;11.60;99.90;;;;;;4986504;28;20173;-42
2023/04/12 10:22:43;;;;;;;0.65;0.65;;;11.50;99.90;;;;;;4990304;28;20220;-43
2023/04/12 10:25:11;;;;;;;0.57;0.57;;;11.60;99.90;;;;;;4990042;28;20192;-42
2023/04/12 10:27:40;;;;;;;1.02;0.90;;;11.80;99.90;;;;;;4988650;28;20188;-43
2023/04/12 10:30:31;;;;;;;1.67;1.10;;;11.80;99.90;;;;;;4990199;28;20165;-42
2023/04/12 10:33:09;;;;;;;0.77;0.77;;;11.70;99.90;;;;;;4989771;28;20165;-42
2023/04/12 10:36:07;;;;;;;2.55;1.27;;;11.80;99.90;;;;;;4990265;28;20263;-43
2023/04/12 10:39:04;;;;;;;1.40;1.30;;;11.80;99.90;;;;;;4983848;28;20540;-43
2023/04/12 10:41:29;;;;;;;1.13;1.02;;;11.90;99.90;;;;;;4970100;28;20297;-45
2023/04/12 10:44:25;;;;;;;2.78;1.63;;;11.90;99.90;;;;;;4970598;28;20569;-42
2023/04/12 10:46:51;;;;;;;3.42;1.33;;;11.80;99.90;;;;;;4975646;28;20177;-42
2023/04/12 10:49:17;;;;;;;4.25;1.85;;;11.80;99.90;;;;;;4979810;28;20226;-42
2023/04/12 10:52:03;;;;;;;2.95;1.85;;;11.70;99.90;;;;;;4977985;28;20629;-42
2023/04/12 10:54:29;;;;;;;5.28;2.25;;;11.70;99.90;;;;;;4970112;28;20314;-42
2023/04/12 10:56:56;;;;;;;3.33;1.98;;;11.80;99.90;;;;;;4970412;28;20714;-42
2023/04/12 10:59:22;;;;;;;4.05;2.33;;;11.90;99.90;;;;;;4983274;28;20173;-42
2023/04/12 11:02:11;;;;;;;7.07;2.58;;;12.00;99.90;;;;;;4987484;28;20607;-43
2023/04/12 11:04:36;;;;;;;5.22;2.65;;;12.00;99.90;;;;;;4989439;28;20173;-42
2023/04/12 11:07:08;;;;;;;6.32;2.20;;;11.90;99.90;;;;;;4989007;28;20172;-45
2023/04/12 11:09:56;;;;;;;7.20;2.55;;;11.90;99.90;;;;;;4988947;28;20229;-42
2023/04/12 11:12:26;;;;;;;5.97;2.60;;;12.10;99.90;;;;;;4989183;28;20195;-42
2023/04/12 11:14:52;;;;;;;8.68;3.05;;;12.30;99.90;;;;;;4988283;28;20172;-42
2023/04/12 11:17:19;;;;;;;4.38;2.45;;;12.50;99.90;;;;;;4969614;28;20269;-42
2023/04/12 11:19:51;;;;;;;3.70;2.40;;;12.50;99.90;;;;;;4969772;28;20166;-42
2023/04/12 11:22:19;;;;;;;4.63;2.38;;;13.00;99.90;;;;;;4969436;28;20319;-43
2023/04/12 11:24:50;;;;;;;4.53;2.03;;;12.80;99.90;;;;;;4968295;28;20170;-42
2023/04/12 11:27:17;;;;;;;3.50;2.20;;;13.10;99.90;;;;;;4969372;28;20637;-42
2023/04/12 11:29:43;;;;;;;4.30;2.58;;;13.00;99.90;;;;;;4984858;28;20180;-43
2023/04/12 11:32:12;;;;;;;3.67;1.75;;;13.10;99.90;;;;;;4980698;28;20222;-43
2023/04/12 11:34:39;;;;;;;1.63;1.45;;;13.10;99.90;;;;;;4969291;28;20636;-42
2023/04/12 11:37:08;;;;;;;4.57;1.90;;;13.20;99.90;;;;;;4969337;28;20161;-43
2023/04/12 11:39:37;;;;;;;4.55;2.25;;;13.20;99.90;;;;;;4969184;28;20181;-43
2023/04/12 11:42:03;;;;;;;4.00;2.28;;;13.00;99.90;;;;;;4969416;28;20213;-42
2023/04/12 11:44:31;;;;;;;3.65;1.75;;;13.20;99.90;;;;;;4969193;28;20225;-42
2023/04/12 11:46:57;;;;;;;4.15;2.08;;;13.60;99.90;;;;;;4969939;28;20173;-42
2023/04/12 11:49:24;;;;;;;2.72;1.70;;;13.60;99.90;;;;;;4969465;28;20195;-42
2023/04/12 11:52:00;;;;;;;4.40;2.03;;;13.80;99.90;;;;;;4981356;28;20177;-42
2023/04/12 11:54:28;;;;;;;7.10;1.92;;;14.00;99.90;;;;;;4989185;28;20176;-43
2023/04/12 11:56:56;;;;;;;4.60;1.92;;;14.10;99.90;;;;;;4988642;28;20169;-42
2023/04/12 11:59:22;;;;;;;4.70;1.80;;;14.00;99.90;;;;;;4991687;28;20207;-42
2023/04/12 12:01:50;;;;;;;7.43;2.13;;;14.00;99.90;;;;;;4991589;28;20216;-43
2023/04/12 12:04:16;;;;;;;6.95;2.20;;;;;;;;;;4991768;28;20629;-42
2023/04/12 12:06:42;;;;;;;6.90;2.20;;;14.10;99.90;;;;;;4991903;28;20184;-43
2023/04/12 12:09:08;;;;;;;4.50;1.80;;;14.20;99.90;;;;;;4988591;28;20695;-42
2023/04/12 12:11:34;;;;;;;5.95;1.88;;;14.20;99.90;;;;;;4972181;28;20256;-42
2023/04/12 12:14:00;;;;;;;5.22;2.08;;;14.40;99.90;;;;;;4972303;28;20256;-46
2023/04/12 12:16:27;;;;;;;7.20;2.05;;;14.60;99.90;;;;;;4972851;28;20197;-42
2023/04/12 12:18:53;;;;;;;7.50;2.08;;;14.70;99.90;;;;;;4972544;28;20173;-42
2023/04/12 12:21:19;;;;;;;7.43;2.70;;;14.60;99.90;;;;;;4988294;28;20236;-43
2023/04/12 12:23:46;;;;;;;10.10;2.28;;;14.80;99.90;;;;;;4991802;28;20180;-43
2023/04/12 12:26:25;;;;;;;5.93;1.80;;;14.60;99.90;;;;;;4991260;28;20597;-42
2023/04/12 12:28:56;;;;;;;8.48;2.40;;;14.60;99.90;;;;;;4991582;28;20179;-42
2023/04/12 12:31:23;;;;;;;9.18;2.65;;;14.60;99.90;;;;;;4991898;28;20184;-42
2023/04/12 12:33:56;;;;;;;8.43;2.28;;;14.70;99.90;;;;;;4991743;28;20173;-42
2023/04/12 12:36:30;;;;;;;7.57;2.42;;;14.70;99.90;;;;;;4992029;28;20177;-42
2023/04/12 12:39:09;;;;;;;8.15;2.22;;;14.90;99.90;;;;;;4990561;28;20164;-43
2023/04/12 12:41:35;;;;;;;7.93;2.15;;;14.70;99.90;;;;;;4971672;28;20707;-43
2023/04/12 12:44:01;;;;;;;6.72;1.88;;;14.70;99.90;;;;;;4971826;28;20181;-43
2023/04/12 12:46:27;;;;;;;8.55;2.47;;;;;;;;;;4972138;28;20667;-42
2023/04/12 12:48:52;;;;;;;6.95;2.10;;;14.80;99.90;;;;;;4972120;28;20178;-42
2023/04/12 12:51:19;;;;;;;5.78;2.25;;;15.00;99.90;;;;;;4971734;28;20166;-43
2023/04/12 12:53:44;;;;;;;6.38;2.17;;;15.00;99.90;;;;;;4971511;28;20177;-42
2023/04/12 12:56:12;;;;;;;7.65;2.70;;;15.10;99.90;;;;;;4971603;28;20245;-43
2023/04/12 12:58:38;;;;;;;7.78;2.40;;;15.30;99.90;;;;;;4971520;28;20292;-42
2023/04/12 13:01:05;;;;;;;11.10;2.33;;;;;;;;;;4971583;28;20189;-42
2023/04/12 13:03:31;;;;;;;7.50;2.58;;;14.70;99.90;;;;;;4971329;28;20676;-43
2023/04/12 13:05:57;;;;;;;3.70;1.85;;;;;;;;;;4971436;28;20205;-43
2023/04/12 13:08:23;;;;;;;7.25;2.22;;;15.00;99.90;;;;;;4979219;28;20302;-43